createdAt,value
2019-04-04T19:41:14.707Z,5.27
2019-04-04T19:43:45.086Z,5.23
2019-04-04T19:46:15.419Z,5.18
2019-04-04T19:48:48.177Z,5.06
2019-04-04T19:51:17.889Z,5.06
2019-04-04T19:53:49.949Z,5.04
2019-04-04T19:56:21.586Z,4.88
2019-04-04T19:58:55.393Z,4.84
2019-04-04T20:01:25.881Z,4.79
2019-04-04T20:03:59.283Z,4.71
2019-04-04T20:06:29.629Z,4.51
2019-04-04T20:09:00.312Z,4.50
2019-04-04T20:11:30.725Z,4.46
2019-04-04T20:14:03.177Z,4.44
2019-04-04T20:16:36.063Z,4.31
2019-04-04T20:19:08.059Z,4.12
2019-04-04T20:21:38.459Z,3.97
2019-04-04T20:24:08.836Z,3.86
2019-04-04T20:26:39.178Z,3.83
2019-04-04T20:29:09.530Z,3.75
2019-04-04T20:31:39.915Z,3.61
2019-04-04T20:34:10.351Z,3.42
2019-04-04T20:36:41.994Z,3.38
2019-04-04T20:39:12.732Z,3.29
2019-04-04T20:41:43.104Z,3.15
2019-04-04T20:44:13.411Z,3.05
2019-04-04T20:46:43.809Z,2.97
2019-04-04T20:49:14.185Z,2.92
2019-04-04T20:51:44.950Z,2.75
2019-04-04T20:54:15.750Z,2.61
2019-04-04T20:56:46.400Z,2.58
2019-04-04T20:59:17.087Z,2.44
2019-04-04T21:01:47.394Z,2.48
2019-04-04T21:04:17.923Z,2.67
2019-04-04T21:06:48.343Z,2.44
2019-04-04T21:09:18.638Z,2.35
2019-04-04T21:11:48.977Z,2.31
2019-04-04T21:14:19.278Z,2.43
2019-04-04T21:16:49.645Z,2.62
2019-04-04T21:19:21.133Z,2.54
2019-04-04T21:21:51.474Z,2.37
2019-04-04T21:24:21.843Z,2.39
2019-04-04T21:26:52.259Z,2.42
2019-04-04T21:29:23.436Z,2.28
2019-04-04T21:31:56.103Z,2.34
2019-04-04T21:34:26.863Z,2.42
2019-04-04T21:36:57.164Z,2.65
2019-04-04T21:39:29.763Z,2.47
2019-04-04T21:41:59.574Z,2.46
2019-04-04T21:44:29.941Z,2.72
2019-04-04T21:47:00.308Z,2.84
2019-04-04T21:49:31.547Z,2.90
2019-04-04T21:52:02.209Z,2.92
2019-04-04T21:54:32.541Z,2.73
2019-04-04T21:57:03.225Z,2.61
2019-04-04T21:59:33.625Z,2.49
2019-04-04T22:02:04.149Z,2.34
2019-04-04T22:04:34.474Z,2.29
2019-04-04T22:07:06.544Z,2.16
2019-04-04T22:09:36.891Z,2.07
2019-04-04T22:12:07.240Z,2.02
2019-04-04T22:14:37.883Z,1.94
2019-04-04T22:17:08.249Z,2.21
2019-04-04T22:19:38.830Z,2.37
2019-04-04T22:22:09.542Z,2.13
2019-04-04T22:24:40.272Z,1.95
2019-04-04T22:27:10.622Z,1.84
2019-04-04T22:29:41.013Z,1.82
2019-04-04T22:32:11.906Z,1.82
2019-04-04T22:34:42.824Z,1.99
2019-04-04T22:37:13.227Z,2.08
2019-04-04T22:39:44.087Z,2.24
2019-04-04T22:42:14.832Z,2.17
2019-04-04T22:44:45.147Z,2.06
2019-04-04T22:47:16.030Z,2.06
2019-04-04T22:49:46.366Z,2.07
2019-04-04T22:52:16.685Z,2.08
2019-04-04T22:54:47.064Z,2.16
2019-04-04T22:57:17.795Z,2.20
2019-04-04T22:59:48.190Z,2.25
2019-04-04T23:02:18.521Z,2.25
2019-04-04T23:04:48.935Z,2.27
2019-04-04T23:07:19.322Z,2.15
2019-04-04T23:09:49.702Z,2.09
2019-04-04T23:12:20.079Z,2.05
2019-04-04T23:14:50.400Z,1.99
2019-04-04T23:17:20.750Z,2.03
2019-04-04T23:19:51.083Z,1.94
2019-04-04T23:22:21.430Z,1.87
2019-04-04T23:24:52.179Z,1.81
2019-04-04T23:27:22.463Z,1.73
2019-04-04T23:29:52.926Z,1.66
2019-04-04T23:32:23.254Z,1.59
2019-04-04T23:34:53.610Z,1.57
2019-04-04T23:37:23.992Z,1.58
2019-04-04T23:39:54.997Z,1.53
2019-04-04T23:42:25.334Z,1.53
2019-04-04T23:45:01.185Z,1.49
2019-04-04T23:47:28.635Z,1.44
2019-04-04T23:49:58.946Z,1.45
2019-04-04T23:52:29.717Z,1.39
2019-04-04T23:55:00.097Z,1.35
2019-04-04T23:57:30.484Z,1.33
